Carl Watts 30:00 row

7,090m

Meters

30:00.0

Time

2:06.9

Pace

425

Calories

Average Watts171
Calories Per Hour888
Stroke Rate18

August 02, 2021 17:57:00

Workout
Indoor Rower

Workout Type
Fixed Time

Weight Class
Hwt

Verified
Yes

Ranked
No

Entered
Concept2 Utility

V169 Test Fail

Splits

Time Meters Pace Watts Cal/Hr S/M
30:00.0 7,090m 2:06.9 171 888 18
1:00.0 236m 2:07.1 170 886 20
2:00.0 235m 2:07.6 168 878 19
3:00.0 235m 2:07.6 168 878 19
4:00.0 234m 2:08.2 166 871 19
5:00.0 235m 2:07.6 168 878 18
6:00.0 236m 2:07.1 170 886 18
7:00.0 235m 2:07.6 168 878 18
8:00.0 237m 2:06.5 173 893 18
9:00.0 237m 2:06.5 173 893 19
10:00.0 237m 2:06.5 173 893 18
11:00.0 238m 2:06.0 175 901 19
12:00.0 237m 2:06.5 173 893 18
13:00.0 235m 2:07.6 168 878 18
14:00.0 235m 2:07.6 168 878 19
15:00.0 237m 2:06.5 173 893 18
16:00.0 237m 2:06.5 173 893 18
17:00.0 238m 2:06.0 175 901 19
18:00.0 237m 2:06.5 173 893 18
19:00.0 237m 2:06.5 173 893 19
20:00.0 235m 2:07.6 168 878 19
21:00.0 238m 2:06.0 175 901 18
22:00.0 237m 2:06.5 173 893 18
23:00.0 235m 2:07.6 168 878 18
24:00.0 238m 2:06.0 175 901 18
25:00.0 237m 2:06.5 173 893 18
26:00.0 237m 2:06.5 173 893 18
27:00.0 238m 2:06.0 175 901 19
28:00.0 237m 2:06.5 173 893 18
29:00.0 236m 2:07.1 170 886 17
30:00.0 236m 2:07.1 170 886 18